< < Back
Terminal Aerodrome Forecast


Current Version              Previous Versions:   1  2  3  4  5  6  7  8  9  

Terminal Aerodrome Forecast

781
FTUS42 KJAX 302300
TAFSSI
TAF
KSSI 302320Z 3100/3124 09010G15KT P6SM SCT060
     FM310300 VRB03KT P6SM SKC
     FM311400 12008KT P6SM SCT060 SCT250=

Latest METAR

417
SAUS70 KWBC 311500
MTRSSI
METAR KSSI 311453Z AUTO VRB04KT 10SM FEW023 29/23 A3001 RMK AO2 SLP161
T02940233 52008


USA.gov is the U.S. government's official web portal to all federal, state and local government web resources and services.